createdAt,value
2019-03-04T00:05:01.940Z,71.10
2019-03-04T00:10:07.523Z,71.10
2019-03-04T00:15:12.911Z,70.80
2019-03-04T00:20:18.288Z,70.50
2019-03-04T00:25:23.684Z,70.10
2019-03-04T00:30:29.048Z,69.80
2019-03-04T00:35:34.386Z,69.30
2019-03-04T00:40:39.789Z,68.80
2019-03-04T00:45:45.337Z,68.40
2019-03-04T00:50:50.726Z,68.40
2019-03-04T00:55:56.079Z,68.10
2019-03-04T01:01:01.490Z,68.10
2019-03-04T01:06:06.893Z,68.10
2019-03-04T01:11:12.367Z,68.40
2019-03-04T01:16:17.740Z,68.70
2019-03-04T01:21:23.145Z,68.90
2019-03-04T01:26:28.606Z,69.30
2019-03-04T01:31:33.963Z,69.60
2019-03-04T01:36:39.415Z,70.00
2019-03-04T01:41:44.808Z,70.20
2019-03-04T01:46:50.156Z,70.30
2019-03-04T01:51:55.688Z,70.30
2019-03-04T01:57:01.099Z,70.40
2019-03-04T02:02:06.664Z,70.20
2019-03-04T02:07:12.101Z,70.30
2019-03-04T02:12:17.619Z,70.30
2019-03-04T02:17:22.970Z,70.20
2019-03-04T02:22:28.422Z,70.20
2019-03-04T02:27:33.828Z,69.80
2019-03-04T02:32:39.195Z,69.40
2019-03-04T02:37:44.536Z,69.30
2019-03-04T02:42:49.915Z,68.80
2019-03-04T02:47:55.311Z,68.50
2019-03-04T02:53:00.676Z,68.20
2019-03-04T02:58:06.217Z,67.50
2019-03-04T03:03:11.642Z,66.80
2019-03-04T03:08:17.086Z,66.10
2019-03-04T03:13:22.584Z,65.90
2019-03-04T03:18:28.051Z,66.20
2019-03-04T03:23:33.545Z,66.40
2019-03-04T03:28:39.001Z,66.90
2019-03-04T03:33:44.434Z,67.60
2019-03-04T03:38:49.953Z,68.20
2019-03-04T03:43:55.425Z,68.40
2019-03-04T03:49:00.797Z,68.40
2019-03-04T03:54:06.182Z,68.30
2019-03-04T03:59:11.571Z,68.00
2019-03-04T04:04:17.035Z,67.50
2019-03-04T04:09:22.525Z,67.20
2019-03-04T04:14:29.348Z,66.70
2019-03-04T04:19:34.921Z,65.80
2019-03-04T04:24:40.313Z,65.30
2019-03-04T04:29:45.719Z,64.40
2019-03-04T04:34:51.087Z,64.40
2019-03-04T04:39:56.507Z,63.90
2019-03-04T04:45:02.027Z,63.60
2019-03-04T04:50:09.666Z,63.50
2019-03-04T04:55:15.126Z,63.70
2019-03-04T05:00:20.532Z,64.30
2019-03-04T05:05:25.938Z,65.10
2019-03-04T05:10:31.540Z,65.90
2019-03-04T05:15:36.982Z,66.40
2019-03-04T05:20:42.391Z,67.10
2019-03-04T05:25:47.800Z,67.40
2019-03-04T05:30:53.169Z,67.20
2019-03-04T05:35:58.668Z,67.20
2019-03-04T05:41:04.063Z,66.80
2019-03-04T05:46:09.545Z,66.50
2019-03-04T05:51:15.081Z,65.80
2019-03-04T05:56:20.462Z,65.00
2019-03-04T06:01:31.595Z,64.40
2019-03-04T06:07:01.793Z,64.00
2019-03-04T06:12:07.181Z,63.10
2019-03-04T06:17:12.577Z,62.70
2019-03-04T06:22:17.973Z,62.30
2019-03-04T06:27:23.553Z,62.60
2019-03-04T06:32:28.992Z,61.50
2019-03-04T06:37:34.453Z,61.90
2019-03-04T06:42:39.883Z,62.90
2019-03-04T06:47:45.402Z,63.80
2019-03-04T06:52:50.842Z,66.30
2019-03-04T06:57:56.337Z,68.50
2019-03-04T07:03:04.675Z,71.90
2019-03-04T07:08:20.725Z,73.20
2019-03-04T07:13:26.221Z,73.60
2019-03-04T07:18:31.582Z,74.10
2019-03-04T07:23:36.982Z,74.30
2019-03-04T07:28:42.400Z,73.80
2019-03-04T07:33:47.917Z,73.70
2019-03-04T07:39:06.144Z,73.90
2019-03-04T07:44:11.572Z,72.30
2019-03-04T07:49:16.951Z,67.90
2019-03-04T07:54:22.395Z,68.30
2019-03-04T07:59:30.118Z,67.30
2019-03-04T08:04:35.542Z,60.90
2019-03-04T08:10:36.597Z,59.80
2019-03-04T08:15:51.845Z,60.50
2019-03-04T08:20:57.340Z,60.40
2019-03-04T08:26:03.183Z,59.80
2019-03-04T08:31:09.207Z,60.30
2019-03-04T08:36:15.048Z,60.30
2019-03-04T08:41:20.451Z,60.50
2019-03-04T08:46:25.897Z,50.50
2019-03-04T08:51:31.270Z,41.10
2019-03-04T08:56:36.708Z,34.50
2019-03-04T09:01:42.343Z,31.20
2019-03-04T09:06:47.742Z,31.00
2019-03-04T09:11:53.238Z,34.10
2019-03-04T09:16:59.038Z,37.30
2019-03-04T09:22:04.487Z,40.70
2019-03-04T09:27:09.924Z,43.60
2019-03-04T09:32:15.304Z,45.00
2019-03-04T09:37:20.880Z,46.40
2019-03-04T09:42:28.171Z,47.30
2019-03-04T09:47:33.513Z,46.80
2019-03-04T09:52:38.994Z,47.00
2019-03-04T09:57:44.421Z,47.30
2019-03-04T10:02:49.921Z,48.00
2019-03-04T10:08:33.677Z,48.20
2019-03-04T10:14:30.343Z,48.10
2019-03-04T10:20:25.550Z,47.60
2019-03-04T10:26:22.591Z,46.20
2019-03-04T10:31:56.533Z,46.20
2019-03-04T10:37:31.943Z,45.70
2019-03-04T10:43:38.914Z,46.30
2019-03-04T10:48:44.348Z,46.40
2019-03-04T10:53:49.790Z,47.30
2019-03-04T10:58:55.178Z,47.70
2019-03-04T11:04:00.572Z,48.80
2019-03-04T11:09:07.733Z,49.50
2019-03-04T11:14:13.364Z,49.90
2019-03-04T11:19:18.762Z,50.50
2019-03-04T11:24:24.140Z,51.30
2019-03-04T11:29:29.626Z,51.80
2019-03-04T11:34:35.102Z,52.40
2019-03-04T11:39:46.684Z,52.80
2019-03-04T11:44:52.108Z,53.30
2019-03-04T11:49:57.479Z,54.10
2019-03-04T11:55:02.870Z,56.90
2019-03-04T12:00:17.744Z,59.00
2019-03-04T12:05:23.124Z,61.40
2019-03-04T12:10:28.472Z,65.00
2019-03-04T12:15:33.813Z,67.10
2019-03-04T12:20:39.201Z,68.30
2019-03-04T12:25:44.598Z,70.30
2019-03-04T12:30:49.975Z,71.20
2019-03-04T12:35:55.425Z,71.90
2019-03-04T12:41:00.779Z,71.70
2019-03-04T12:46:06.748Z,71.90
2019-03-04T12:51:12.078Z,72.60
2019-03-04T12:56:17.481Z,71.80
2019-03-04T13:01:22.901Z,71.70
2019-03-04T13:06:28.296Z,70.10
2019-03-04T13:11:33.655Z,68.70
2019-03-04T13:16:39.030Z,67.70
2019-03-04T13:21:44.421Z,65.90
2019-03-04T13:26:49.874Z,65.20
2019-03-04T13:31:55.257Z,64.00
2019-03-04T13:37:00.597Z,63.40
2019-03-04T13:42:06.003Z,62.80
2019-03-04T13:47:11.605Z,62.20
2019-03-04T13:52:17.038Z,62.80
2019-03-04T13:57:22.370Z,62.60
2019-03-04T14:02:27.734Z,62.80
2019-03-04T14:07:33.199Z,62.20
2019-03-04T14:12:38.574Z,61.70
2019-03-04T14:17:43.937Z,61.70
2019-03-04T14:22:57.315Z,61.50
2019-03-04T14:27:56.465Z,60.80
2019-03-04T14:33:01.861Z,60.40
2019-03-04T14:38:07.227Z,60.20
2019-03-04T14:43:12.695Z,58.80
2019-03-04T14:48:18.278Z,58.60
2019-03-04T14:53:23.641Z,58.40
2019-03-04T14:58:29.039Z,58.40
2019-03-04T15:03:34.475Z,56.50
2019-03-04T15:08:39.870Z,56.40
2019-03-04T15:13:46.227Z,56.50
2019-03-04T15:18:51.688Z,56.30
2019-03-04T15:23:57.265Z,56.40
2019-03-04T15:29:02.671Z,56.10
2019-03-04T15:34:08.130Z,56.00
2019-03-04T15:39:22.877Z,55.30
2019-03-04T15:44:23.876Z,55.40
2019-03-04T15:49:29.431Z,55.70
2019-03-04T15:54:34.915Z,56.00
2019-03-04T15:59:40.278Z,56.10
2019-03-04T16:04:45.753Z,56.20
2019-03-04T16:09:51.802Z,56.30
2019-03-04T16:14:57.185Z,56.00
2019-03-04T16:20:02.564Z,56.10
2019-03-04T16:25:08.714Z,56.10
2019-03-04T16:30:17.486Z,56.40
2019-03-04T16:35:23.412Z,56.30
2019-03-04T16:40:29.662Z,56.30
2019-03-04T16:45:36.895Z,56.30
2019-03-04T16:50:44.742Z,56.00
2019-03-04T16:55:51.204Z,56.00
2019-03-04T17:00:57.131Z,56.30
2019-03-04T17:06:07.819Z,56.20
2019-03-04T17:11:16.872Z,56.10
2019-03-04T17:16:26.944Z,56.50
2019-03-04T17:21:33.747Z,56.90
2019-03-04T17:26:41.358Z,57.00
2019-03-04T17:31:49.794Z,57.30
2019-03-04T17:36:56.634Z,57.30
2019-03-04T17:42:02.587Z,57.40
2019-03-04T17:47:08.027Z,57.20
2019-03-04T17:52:13.470Z,57.30
2019-03-04T17:57:18.946Z,57.30
2019-03-04T18:02:24.341Z,57.50
2019-03-04T18:07:29.769Z,57.60
2019-03-04T18:12:35.126Z,57.30
2019-03-04T18:17:40.506Z,57.20
2019-03-04T18:22:45.915Z,57.30
2019-03-04T18:27:56.006Z,57.40
2019-03-04T18:34:07.235Z,57.70
2019-03-04T18:40:13.907Z,58.20
2019-03-04T18:46:22.568Z,58.70
2019-03-04T18:51:30.037Z,59.00
2019-03-04T18:56:35.444Z,59.30
2019-03-04T19:01:40.816Z,59.50
2019-03-04T19:06:46.193Z,59.60
2019-03-04T19:11:51.661Z,59.80
2019-03-04T19:16:57.015Z,60.10
2019-03-04T19:22:02.350Z,60.20
2019-03-04T19:27:07.703Z,60.20
2019-03-04T19:32:13.105Z,60.30
2019-03-04T19:37:18.516Z,60.50
2019-03-04T19:42:23.940Z,60.90
2019-03-04T19:47:29.349Z,61.20
2019-03-04T19:52:34.721Z,61.50
2019-03-04T19:57:41.969Z,61.80
2019-03-04T20:02:48.192Z,62.50
2019-03-04T20:07:53.637Z,62.50
2019-03-04T20:12:59.093Z,62.80
2019-03-04T20:18:04.493Z,62.80
2019-03-04T20:23:09.840Z,63.00
2019-03-04T20:28:16.967Z,63.00
2019-03-04T20:33:22.369Z,62.90
2019-03-04T20:38:33.315Z,62.60
2019-03-04T20:43:38.742Z,62.10
2019-03-04T20:48:44.268Z,61.60
2019-03-04T20:53:49.785Z,61.70
2019-03-04T20:58:55.154Z,63.30
2019-03-04T21:04:00.507Z,66.20
2019-03-04T21:09:07.280Z,67.50
2019-03-04T21:14:12.665Z,67.30
2019-03-04T21:19:18.078Z,68.10
2019-03-04T21:24:23.410Z,68.20
2019-03-04T21:30:30.249Z,68.50
2019-03-04T21:36:16.019Z,69.10
2019-03-04T21:42:17.582Z,69.40
2019-03-04T21:47:40.907Z,69.70
2019-03-04T21:53:18.277Z,70.40
2019-03-04T21:58:23.641Z,71.20
2019-03-04T22:03:33.511Z,71.30
2019-03-04T22:08:38.902Z,71.60
2019-03-04T22:13:44.262Z,71.60
2019-03-04T22:18:49.679Z,71.50
2019-03-04T22:23:55.057Z,71.70
2019-03-04T22:29:00.466Z,71.90
2019-03-04T22:34:05.927Z,71.40
2019-03-04T22:39:11.284Z,70.80
2019-03-04T22:44:16.706Z,70.60
2019-03-04T22:49:22.069Z,69.90
2019-03-04T22:54:29.095Z,69.50
2019-03-04T22:59:34.614Z,68.80
2019-03-04T23:05:10.255Z,68.60
2019-03-04T23:10:44.070Z,72.80
2019-03-04T23:15:51.619Z,68.20
2019-03-04T23:20:57.009Z,67.90
2019-03-04T23:26:02.583Z,67.70
2019-03-04T23:31:08.628Z,68.00
2019-03-04T23:36:14.019Z,68.20
2019-03-04T23:41:19.815Z,68.20
2019-03-04T23:46:25.209Z,68.00
2019-03-04T23:51:30.603Z,68.10
2019-03-04T23:56:36.009Z,67.70
